ENFB/FBU METAR and TAF weather

Enter ICAO airport designator
Station Type Date Time Source
ENFB METAR 2019/10/21 02:20 UTC NOAA

ENFB 210220Z AUTO 31006KT 9999NDV SCT039/// 07/01 Q1020 W///S4


Station Type Date Time Source
ENFB Decoded METAR 2019/10/21 02:20 UTC NOAA

Oslo / Fornebu, Norway (ENFB) 59-54N 010-38E 17M
Oct 20, 2019 - 10:20 PM EDT / 2019.10.21 0220 UTC
Wind: from the NW (310 degrees) at 7 MPH (6 KT):0
Sky conditions: partly cloudy
Temperature: 44 F (7 C)
Dew Point: 33 F (1 C)
Relative Humidity: 65%
Pressure (altimeter): 30.12 in. Hg (1020 hPa)
ob: ENFB 210220Z AUTO 31006KT 9999NDV SCT039/// 07/01 Q1020 W///S4
cycle: 2

Station Type Date Time Source
ENFB TAF UTC NOAA

Error!

Example: see airport list